EPGD/GDN METAR and TAF weather

Enter ICAO airport designator
Station Type Date Time Source
EPGD METAR 2022/12/04 04:00 UTC NOAA

EPGD 040400Z 11006KT 1800 BR OVC002 M02/M02 Q1025


Station Type Date Time Source
EPGD Decoded METAR 2022/12/04 04:00 UTC NOAA

Gdansk-Rebiechowo, Poland (EPGD) 54-23N 018-28E 138M
Dec 03, 2022 - 11:00 PM EST / 2022.12.04 0400 UTC
Wind: from the ESE (110 degrees) at 7 MPH (6 KT):0
Visibility: 1 mile(s):0
Sky conditions: overcast
Weather: mist
Temperature: 28 F (-2 C)
Windchill: 21 F (-6 C):1
Dew Point: 28 F (-2 C)
Relative Humidity: 100%
Pressure (altimeter): 30.27 in. Hg (1025 hPa)
ob: EPGD 040400Z 11006KT 1800 BR OVC002 M02/M02 Q1025
cycle: 4

Station Type Date Time Source
EPGD TAF 2022/12/03 18:33 UTC NOAA

TAF TAF EPGD 031730Z 0318/0418 12005KT 4000 BR BKN035
BECMG 0318/0321 2000 BR BKN003 BKN006 PROB30
TEMPO 0318/0320 -FZDZ
TEMPO 0321/0408 1200 -RASN BR PROB40
TEMPO 0402/0408 0700 -FZDZ FZFG BKN001
TEMPO 0408/0418 1000 -RA BR PROB40
TEMPO 0408/0418 0500 FZRADZ FZFG BKN001

Example: see airport list